sensor_id;sensor_type;location;lat;lon;timestamp;P1;durP1;ratioP1;P2;durP2;ratioP2
51236;SDS011;37312;47.550;18.818;2022-09-01T00:02:24;10.68;;;7.15;;
51236;SDS011;37312;47.550;18.818;2022-09-01T00:04:53;7.18;;;6.53;;
51236;SDS011;37312;47.550;18.818;2022-09-01T00:07:23;7.53;;;6.90;;
51236;SDS011;37312;47.550;18.818;2022-09-01T00:09:54;7.12;;;6.47;;
51236;SDS011;37312;47.550;18.818;2022-09-01T00:12:20;6.10;;;5.40;;
51236;SDS011;37312;47.550;18.818;2022-09-01T00:14:47;6.30;;;5.80;;
51236;SDS011;37312;47.550;18.818;2022-09-01T00:17:14;7.00;;;6.07;;
51236;SDS011;37312;47.550;18.818;2022-09-01T00:22:06;7.70;;;5.95;;
51236;SDS011;37312;47.550;18.818;2022-09-01T00:24:33;5.55;;;5.15;;
51236;SDS011;37312;47.550;18.818;2022-09-01T00:26:59;6.65;;;6.07;;
51236;SDS011;37312;47.550;18.818;2022-09-01T00:29:26;8.48;;;6.62;;
51236;SDS011;37312;47.550;18.818;2022-09-01T00:34:17;7.93;;;7.22;;
51236;SDS011;37312;47.550;18.818;2022-09-01T00:36:44;7.78;;;6.95;;
51236;SDS011;37312;47.550;18.818;2022-09-01T00:41:37;8.57;;;7.82;;
51236;SDS011;37312;47.550;18.818;2022-09-01T00:44:06;10.20;;;9.20;;
51236;SDS011;37312;47.550;18.818;2022-09-01T00:46:34;8.80;;;7.85;;
51236;SDS011;37312;47.550;18.818;2022-09-01T00:49:04;9.15;;;7.55;;
51236;SDS011;37312;47.550;18.818;2022-09-01T00:51:33;8.13;;;7.43;;
51236;SDS011;37312;47.550;18.818;2022-09-01T00:54:03;9.25;;;7.85;;
51236;SDS011;37312;47.550;18.818;2022-09-01T00:56:31;8.07;;;7.25;;
51236;SDS011;37312;47.550;18.818;2022-09-01T00:58:59;7.70;;;7.00;;
51236;SDS011;37312;47.550;18.818;2022-09-01T01:01:26;11.02;;;7.87;;
51236;SDS011;37312;47.550;18.818;2022-09-01T01:03:52;8.90;;;7.32;;
51236;SDS011;37312;47.550;18.818;2022-09-01T01:08:48;7.97;;;7.15;;
51236;SDS011;37312;47.550;18.818;2022-09-01T01:11:22;8.15;;;7.37;;
51236;SDS011;37312;47.550;18.818;2022-09-01T01:13:52;7.20;;;6.57;;
51236;SDS011;37312;47.550;18.818;2022-09-01T01:16:30;6.85;;;6.37;;
51236;SDS011;37312;47.550;18.818;2022-09-01T01:21:22;6.20;;;5.60;;
51236;SDS011;37312;47.550;18.818;2022-09-01T01:26:49;7.22;;;5.10;;
51236;SDS011;37312;47.550;18.818;2022-09-01T01:29:16;6.05;;;5.15;;
51236;SDS011;37312;47.550;18.818;2022-09-01T01:31:43;5.68;;;5.12;;
51236;SDS011;37312;47.550;18.818;2022-09-01T01:34:14;5.53;;;4.70;;
51236;SDS011;37312;47.550;18.818;2022-09-01T01:36:42;5.47;;;5.00;;
51236;SDS011;37312;47.550;18.818;2022-09-01T01:39:22;5.70;;;4.47;;
51236;SDS011;37312;47.550;18.818;2022-09-01T01:41:52;4.20;;;3.87;;
51236;SDS011;37312;47.550;18.818;2022-09-01T01:44:21;4.68;;;4.20;;
51236;SDS011;37312;47.550;18.818;2022-09-01T01:46:50;5.57;;;4.82;;
51236;SDS011;37312;47.550;18.818;2022-09-01T01:49:21;4.95;;;4.53;;
51236;SDS011;37312;47.550;18.818;2022-09-01T01:51:50;5.45;;;4.37;;
51236;SDS011;37312;47.550;18.818;2022-09-01T01:54:21;4.70;;;4.30;;
51236;SDS011;37312;47.550;18.818;2022-09-01T01:56:48;5.85;;;4.25;;
51236;SDS011;37312;47.550;18.818;2022-09-01T01:59:14;5.60;;;5.03;;
51236;SDS011;37312;47.550;18.818;2022-09-01T02:01:41;4.25;;;3.95;;
51236;SDS011;37312;47.550;18.818;2022-09-01T02:04:09;4.28;;;3.90;;
51236;SDS011;37312;47.550;18.818;2022-09-01T02:06:36;5.45;;;4.70;;
51236;SDS011;37312;47.550;18.818;2022-09-01T02:09:06;4.22;;;3.83;;
51236;SDS011;37312;47.550;18.818;2022-09-01T02:11:32;4.57;;;3.25;;
51236;SDS011;37312;47.550;18.818;2022-09-01T02:14:03;3.95;;;3.42;;
51236;SDS011;37312;47.550;18.818;2022-09-01T02:16:31;5.32;;;3.05;;
51236;SDS011;37312;47.550;18.818;2022-09-01T02:18:58;4.00;;;3.65;;
51236;SDS011;37312;47.550;18.818;2022-09-01T02:21:26;5.72;;;4.20;;
51236;SDS011;37312;47.550;18.818;2022-09-01T02:23:56;3.22;;;3.03;;
51236;SDS011;37312;47.550;18.818;2022-09-01T02:26:30;2.92;;;2.62;;
51236;SDS011;37312;47.550;18.818;2022-09-01T02:28:59;3.95;;;3.53;;
51236;SDS011;37312;47.550;18.818;2022-09-01T02:31:32;3.47;;;2.92;;
51236;SDS011;37312;47.550;18.818;2022-09-01T02:34:06;5.78;;;2.95;;
51236;SDS011;37312;47.550;18.818;2022-09-01T02:36:39;3.03;;;2.83;;
51236;SDS011;37312;47.550;18.818;2022-09-01T02:39:06;5.55;;;3.03;;
51236;SDS011;37312;47.550;18.818;2022-09-01T02:43:58;2.50;;;2.30;;
51236;SDS011;37312;47.550;18.818;2022-09-01T02:46:27;2.60;;;2.40;;
51236;SDS011;37312;47.550;18.818;2022-09-01T02:48:54;3.40;;;2.87;;
51236;SDS011;37312;47.550;18.818;2022-09-01T02:53:47;3.75;;;3.08;;
51236;SDS011;37312;47.550;18.818;2022-09-01T02:56:15;4.97;;;4.00;;
51236;SDS011;37312;47.550;18.818;2022-09-01T02:58:43;2.58;;;2.37;;
51236;SDS011;37312;47.550;18.818;2022-09-01T03:01:21;3.45;;;3.15;;
51236;SDS011;37312;47.550;18.818;2022-09-01T03:03:54;10.18;;;3.55;;
51236;SDS011;37312;47.550;18.818;2022-09-01T03:06:24;6.93;;;3.05;;
51236;SDS011;37312;47.550;18.818;2022-09-01T03:08:51;3.53;;;2.53;;
51236;SDS011;37312;47.550;18.818;2022-09-01T03:11:20;5.25;;;2.92;;
51236;SDS011;37312;47.550;18.818;2022-09-01T03:13:48;2.90;;;2.70;;
51236;SDS011;37312;47.550;18.818;2022-09-01T03:16:14;2.95;;;2.72;;
51236;SDS011;37312;47.550;18.818;2022-09-01T03:18:40;5.60;;;2.87;;
51236;SDS011;37312;47.550;18.818;2022-09-01T03:21:07;5.03;;;3.87;;
51236;SDS011;37312;47.550;18.818;2022-09-01T03:23:34;3.05;;;2.78;;
51236;SDS011;37312;47.550;18.818;2022-09-01T03:26:02;6.03;;;3.75;;
51236;SDS011;37312;47.550;18.818;2022-09-01T03:30:55;6.68;;;3.30;;
51236;SDS011;37312;47.550;18.818;2022-09-01T03:33:23;4.53;;;2.80;;
51236;SDS011;37312;47.550;18.818;2022-09-01T03:35:50;4.35;;;3.47;;
51236;SDS011;37312;47.550;18.818;2022-09-01T03:38:17;3.40;;;3.10;;
51236;SDS011;37312;47.550;18.818;2022-09-01T03:40:49;3.53;;;3.22;;
51236;SDS011;37312;47.550;18.818;2022-09-01T03:43:17;7.03;;;3.80;;
51236;SDS011;37312;47.550;18.818;2022-09-01T03:45:48;3.03;;;2.83;;
51236;SDS011;37312;47.550;18.818;2022-09-01T03:48:14;3.33;;;2.25;;
51236;SDS011;37312;47.550;18.818;2022-09-01T03:50:42;3.30;;;2.92;;
51236;SDS011;37312;47.550;18.818;2022-09-01T03:53:13;4.12;;;2.62;;
51236;SDS011;37312;47.550;18.818;2022-09-01T03:55:40;3.10;;;2.85;;
51236;SDS011;37312;47.550;18.818;2022-09-01T03:58:09;2.92;;;2.70;;
51236;SDS011;37312;47.550;18.818;2022-09-01T04:00:40;5.28;;;3.03;;
51236;SDS011;37312;47.550;18.818;2022-09-01T04:03:08;3.72;;;3.20;;
51236;SDS011;37312;47.550;18.818;2022-09-01T04:05:37;6.45;;;2.25;;
51236;SDS011;37312;47.550;18.818;2022-09-01T04:08:08;3.70;;;3.08;;
51236;SDS011;37312;47.550;18.818;2022-09-01T04:10:42;4.82;;;3.10;;
51236;SDS011;37312;47.550;18.818;2022-09-01T04:13:15;2.50;;;2.30;;
51236;SDS011;37312;47.550;18.818;2022-09-01T04:15:43;2.97;;;2.58;;
51236;SDS011;37312;47.550;18.818;2022-09-01T04:18:10;3.35;;;2.45;;
51236;SDS011;37312;47.550;18.818;2022-09-01T04:20:47;3.33;;;2.95;;
51236;SDS011;37312;47.550;18.818;2022-09-01T04:23:20;2.10;;;2.00;;
51236;SDS011;37312;47.550;18.818;2022-09-01T04:25:52;3.67;;;2.70;;
51236;SDS011;37312;47.550;18.818;2022-09-01T04:28:21;3.05;;;2.67;;
51236;SDS011;37312;47.550;18.818;2022-09-01T04:30:51;6.43;;;2.65;;
51236;SDS011;37312;47.550;18.818;2022-09-01T04:33:27;2.97;;;2.70;;
51236;SDS011;37312;47.550;18.818;2022-09-01T04:36:03;4.90;;;2.83;;
51236;SDS011;37312;47.550;18.818;2022-09-01T04:38:47;6.32;;;2.65;;
51236;SDS011;37312;47.550;18.818;2022-09-01T04:41:21;4.35;;;2.67;;
51236;SDS011;37312;47.550;18.818;2022-09-01T04:43:50;3.15;;;2.90;;
51236;SDS011;37312;47.550;18.818;2022-09-01T04:46:18;3.22;;;2.85;;
51236;SDS011;37312;47.550;18.818;2022-09-01T04:48:44;3.53;;;3.20;;
51236;SDS011;37312;47.550;18.818;2022-09-01T04:53:37;3.50;;;3.03;;
51236;SDS011;37312;47.550;18.818;2022-09-01T04:56:05;3.58;;;3.28;;
51236;SDS011;37312;47.550;18.818;2022-09-01T04:58:32;3.55;;;3.22;;
51236;SDS011;37312;47.550;18.818;2022-09-01T05:00:58;4.57;;;3.33;;
51236;SDS011;37312;47.550;18.818;2022-09-01T05:05:51;8.93;;;3.87;;
51236;SDS011;37312;47.550;18.818;2022-09-01T05:08:19;4.93;;;4.10;;
51236;SDS011;37312;47.550;18.818;2022-09-01T05:10:48;3.75;;;3.45;;
51236;SDS011;37312;47.550;18.818;2022-09-01T05:13:17;5.53;;;3.37;;
51236;SDS011;37312;47.550;18.818;2022-09-01T05:15:45;4.40;;;3.47;;
51236;SDS011;37312;47.550;18.818;2022-09-01T05:18:13;3.15;;;2.95;;
51236;SDS011;37312;47.550;18.818;2022-09-01T05:20:40;3.78;;;3.00;;
51236;SDS011;37312;47.550;18.818;2022-09-01T05:23:11;3.75;;;3.28;;
51236;SDS011;37312;47.550;18.818;2022-09-01T05:25:42;4.45;;;3.30;;
51236;SDS011;37312;47.550;18.818;2022-09-01T05:28:14;3.97;;;3.65;;
51236;SDS011;37312;47.550;18.818;2022-09-01T05:30:45;3.83;;;3.53;;
51236;SDS011;37312;47.550;18.818;2022-09-01T05:33:13;2.70;;;2.53;;
51236;SDS011;37312;47.550;18.818;2022-09-01T05:35:41;3.33;;;2.90;;
51236;SDS011;37312;47.550;18.818;2022-09-01T05:38:16;4.32;;;2.55;;
51236;SDS011;37312;47.550;18.818;2022-09-01T05:40:42;2.97;;;2.67;;
51236;SDS011;37312;47.550;18.818;2022-09-01T05:43:10;3.08;;;2.78;;
51236;SDS011;37312;47.550;18.818;2022-09-01T05:45:41;2.83;;;2.62;;
51236;SDS011;37312;47.550;18.818;2022-09-01T05:48:10;3.12;;;2.83;;
51236;SDS011;37312;47.550;18.818;2022-09-01T05:50:40;3.55;;;2.25;;
51236;SDS011;37312;47.550;18.818;2022-09-01T05:53:10;2.37;;;1.87;;
51236;SDS011;37312;47.550;18.818;2022-09-01T05:55:45;6.72;;;2.78;;
51236;SDS011;37312;47.550;18.818;2022-09-01T05:58:14;2.75;;;2.22;;
51236;SDS011;37312;47.550;18.818;2022-09-01T06:00:45;3.87;;;2.37;;
51236;SDS011;37312;47.550;18.818;2022-09-01T06:03:13;4.75;;;2.33;;
51236;SDS011;37312;47.550;18.818;2022-09-01T06:05:41;2.40;;;2.20;;
51236;SDS011;37312;47.550;18.818;2022-09-01T06:08:09;3.22;;;2.58;;
51236;SDS011;37312;47.550;18.818;2022-09-01T06:10:38;3.20;;;2.42;;
51236;SDS011;37312;47.550;18.818;2022-09-01T06:13:06;2.47;;;2.28;;
51236;SDS011;37312;47.550;18.818;2022-09-01T06:15:34;5.72;;;3.15;;
51236;SDS011;37312;47.550;18.818;2022-09-01T06:18:04;2.62;;;2.42;;
51236;SDS011;37312;47.550;18.818;2022-09-01T06:20:31;1.98;;;1.85;;
51236;SDS011;37312;47.550;18.818;2022-09-01T06:22:58;3.00;;;2.80;;
51236;SDS011;37312;47.550;18.818;2022-09-01T06:25:24;2.17;;;2.08;;
51236;SDS011;37312;47.550;18.818;2022-09-01T06:27:55;4.25;;;2.37;;
51236;SDS011;37312;47.550;18.818;2022-09-01T06:30:21;2.62;;;2.40;;
51236;SDS011;37312;47.550;18.818;2022-09-01T06:32:51;3.67;;;2.87;;
51236;SDS011;37312;47.550;18.818;2022-09-01T06:35:19;2.58;;;2.10;;
51236;SDS011;37312;47.550;18.818;2022-09-01T06:37:46;2.92;;;2.60;;
51236;SDS011;37312;47.550;18.818;2022-09-01T06:40:13;2.53;;;2.22;;
51236;SDS011;37312;47.550;18.818;2022-09-01T06:42:44;3.10;;;2.87;;
51236;SDS011;37312;47.550;18.818;2022-09-01T06:45:15;2.80;;;2.60;;
51236;SDS011;37312;47.550;18.818;2022-09-01T06:47:42;2.05;;;1.95;;
51236;SDS011;37312;47.550;18.818;2022-09-01T06:50:19;1.70;;;1.60;;
51236;SDS011;37312;47.550;18.818;2022-09-01T06:52:49;2.22;;;2.05;;
51236;SDS011;37312;47.550;18.818;2022-09-01T06:55:18;5.60;;;2.10;;
51236;SDS011;37312;47.550;18.818;2022-09-01T07:00:16;3.15;;;2.17;;
51236;SDS011;37312;47.550;18.818;2022-09-01T07:02:44;2.53;;;1.70;;
51236;SDS011;37312;47.550;18.818;2022-09-01T07:05:13;3.25;;;1.75;;
51236;SDS011;37312;47.550;18.818;2022-09-01T07:07:46;2.62;;;2.42;;
51236;SDS011;37312;47.550;18.818;2022-09-01T07:10:17;3.12;;;2.12;;
51236;SDS011;37312;47.550;18.818;2022-09-01T07:12:47;5.60;;;2.55;;
51236;SDS011;37312;47.550;18.818;2022-09-01T07:15:14;2.25;;;2.08;;
51236;SDS011;37312;47.550;18.818;2022-09-01T07:17:44;4.53;;;2.37;;
51236;SDS011;37312;47.550;18.818;2022-09-01T07:20:13;2.97;;;2.42;;
51236;SDS011;37312;47.550;18.818;2022-09-01T07:22:40;5.87;;;2.75;;
51236;SDS011;37312;47.550;18.818;2022-09-01T07:25:07;3.05;;;2.22;;
51236;SDS011;37312;47.550;18.818;2022-09-01T07:27:37;3.92;;;2.50;;
51236;SDS011;37312;47.550;18.818;2022-09-01T07:30:04;3.05;;;2.85;;
51236;SDS011;37312;47.550;18.818;2022-09-01T07:32:35;2.78;;;2.50;;
51236;SDS011;37312;47.550;18.818;2022-09-01T07:35:02;2.72;;;2.08;;
51236;SDS011;37312;47.550;18.818;2022-09-01T07:37:30;3.22;;;2.53;;
51236;SDS011;37312;47.550;18.818;2022-09-01T07:40:02;4.95;;;2.80;;
51236;SDS011;37312;47.550;18.818;2022-09-01T07:42:33;2.58;;;2.37;;
51236;SDS011;37312;47.550;18.818;2022-09-01T07:45:00;2.15;;;1.95;;
51236;SDS011;37312;47.550;18.818;2022-09-01T07:47:33;3.97;;;2.15;;
51236;SDS011;37312;47.550;18.818;2022-09-01T07:50:02;2.55;;;2.35;;
51236;SDS011;37312;47.550;18.818;2022-09-01T07:52:32;2.15;;;1.85;;
51236;SDS011;37312;47.550;18.818;2022-09-01T07:55:01;5.57;;;2.33;;
51236;SDS011;37312;47.550;18.818;2022-09-01T07:57:28;3.03;;;2.33;;
51236;SDS011;37312;47.550;18.818;2022-09-01T07:59:54;6.28;;;2.75;;
51236;SDS011;37312;47.550;18.818;2022-09-01T08:02:22;6.72;;;2.50;;
51236;SDS011;37312;47.550;18.818;2022-09-01T08:04:48;3.72;;;3.15;;
51236;SDS011;37312;47.550;18.818;2022-09-01T08:09:40;4.30;;;3.53;;
51236;SDS011;37312;47.550;18.818;2022-09-01T08:12:07;6.62;;;3.00;;
51236;SDS011;37312;47.550;18.818;2022-09-01T08:14:33;2.92;;;2.72;;
51236;SDS011;37312;47.550;18.818;2022-09-01T08:16:59;5.75;;;2.97;;
51236;SDS011;37312;47.550;18.818;2022-09-01T08:19:25;3.55;;;3.10;;
51236;SDS011;37312;47.550;18.818;2022-09-01T08:21:51;3.12;;;2.83;;
51236;SDS011;37312;47.550;18.818;2022-09-01T08:26:43;3.53;;;3.20;;
51236;SDS011;37312;47.550;18.818;2022-09-01T08:29:09;2.58;;;2.40;;
51236;SDS011;37312;47.550;18.818;2022-09-01T08:31:35;4.35;;;2.67;;
51236;SDS011;37312;47.550;18.818;2022-09-01T08:34:02;3.47;;;2.47;;
51236;SDS011;37312;47.550;18.818;2022-09-01T08:36:30;4.85;;;3.28;;
51236;SDS011;37312;47.550;18.818;2022-09-01T08:38:57;3.25;;;2.97;;
51236;SDS011;37312;47.550;18.818;2022-09-01T08:44:12;3.05;;;2.33;;
51236;SDS011;37312;47.550;18.818;2022-09-01T08:46:52;3.92;;;3.03;;
51236;SDS011;37312;47.550;18.818;2022-09-01T08:49:22;3.55;;;3.25;;
51236;SDS011;37312;47.550;18.818;2022-09-01T08:51:56;6.78;;;2.92;;
51236;SDS011;37312;47.550;18.818;2022-09-01T08:57:08;3.17;;;2.67;;
51236;SDS011;37312;47.550;18.818;2022-09-01T08:59:41;2.95;;;2.67;;
51236;SDS011;37312;47.550;18.818;2022-09-01T09:13:17;3.72;;;1.92;;
51236;SDS011;37312;47.550;18.818;2022-09-01T09:15:57;3.12;;;2.12;;
51236;SDS011;37312;47.550;18.818;2022-09-01T09:18:28;2.75;;;1.98;;
51236;SDS011;37312;47.550;18.818;2022-09-01T09:20:58;7.53;;;3.55;;
51236;SDS011;37312;47.550;18.818;2022-09-01T09:23:33;2.47;;;2.12;;
51236;SDS011;37312;47.550;18.818;2022-09-01T09:26:02;2.25;;;2.03;;
51236;SDS011;37312;47.550;18.818;2022-09-01T09:28:28;4.30;;;2.42;;
51236;SDS011;37312;47.550;18.818;2022-09-01T09:33:58;2.78;;;2.12;;
51236;SDS011;37312;47.550;18.818;2022-09-01T09:36:30;4.78;;;2.45;;
51236;SDS011;37312;47.550;18.818;2022-09-01T09:39:05;3.22;;;2.08;;
51236;SDS011;37312;47.550;18.818;2022-09-01T09:41:35;7.32;;;2.22;;
51236;SDS011;37312;47.550;18.818;2022-09-01T09:49:07;1.52;;;1.40;;
51236;SDS011;37312;47.550;18.818;2022-09-01T09:51:50;1.85;;;1.58;;
51236;SDS011;37312;47.550;18.818;2022-09-01T09:54:20;2.80;;;1.40;;
51236;SDS011;37312;47.550;18.818;2022-09-01T09:57:23;1.73;;;1.25;;
51236;SDS011;37312;47.550;18.818;2022-09-01T10:02:15;4.70;;;1.52;;
51236;SDS011;37312;47.550;18.818;2022-09-01T10:04:49;1.45;;;0.95;;
51236;SDS011;37312;47.550;18.818;2022-09-01T10:07:21;1.83;;;1.37;;
51236;SDS011;37312;47.550;18.818;2022-09-01T10:09:53;2.58;;;1.08;;
51236;SDS011;37312;47.550;18.818;2022-09-01T10:12:22;2.55;;;1.52;;
51236;SDS011;37312;47.550;18.818;2022-09-01T10:15:03;1.25;;;1.12;;
51236;SDS011;37312;47.550;18.818;2022-09-01T10:17:35;2.83;;;1.05;;
51236;SDS011;37312;47.550;18.818;2022-09-01T10:20:17;2.25;;;0.93;;
51236;SDS011;37312;47.550;18.818;2022-09-01T10:22:48;2.45;;;1.00;;
51236;SDS011;37312;47.550;18.818;2022-09-01T10:25:19;1.87;;;1.40;;
51236;SDS011;37312;47.550;18.818;2022-09-01T10:27:50;1.95;;;1.50;;
51236;SDS011;37312;47.550;18.818;2022-09-01T10:30:20;1.73;;;1.33;;
51236;SDS011;37312;47.550;18.818;2022-09-01T10:35:33;1.77;;;1.00;;
51236;SDS011;37312;47.550;18.818;2022-09-01T10:38:04;3.10;;;1.55;;
51236;SDS011;37312;47.550;18.818;2022-09-01T10:45:52;2.08;;;1.20;;
51236;SDS011;37312;47.550;18.818;2022-09-01T10:50:53;1.80;;;1.45;;
51236;SDS011;37312;47.550;18.818;2022-09-01T10:53:41;1.80;;;1.05;;
51236;SDS011;37312;47.550;18.818;2022-09-01T11:04:15;2.80;;;1.50;;
51236;SDS011;37312;47.550;18.818;2022-09-01T11:06:51;4.87;;;1.52;;
51236;SDS011;37312;47.550;18.818;2022-09-01T11:12:27;0.97;;;0.90;;
51236;SDS011;37312;47.550;18.818;2022-09-01T11:20:30;1.33;;;1.23;;
51236;SDS011;37312;47.550;18.818;2022-09-01T11:23:00;1.45;;;0.88;;
51236;SDS011;37312;47.550;18.818;2022-09-01T11:33:00;1.33;;;1.12;;
51236;SDS011;37312;47.550;18.818;2022-09-01T11:35:36;1.85;;;1.33;;
51236;SDS011;37312;47.550;18.818;2022-09-01T11:38:02;1.40;;;1.10;;
51236;SDS011;37312;47.550;18.818;2022-09-01T11:40:32;2.45;;;1.40;;
51236;SDS011;37312;47.550;18.818;2022-09-01T11:43:02;1.55;;;1.05;;
51236;SDS011;37312;47.550;18.818;2022-09-01T11:45:32;3.00;;;1.12;;
51236;SDS011;37312;47.550;18.818;2022-09-01T11:48:09;2.35;;;1.20;;
51236;SDS011;37312;47.550;18.818;2022-09-01T11:50:40;1.37;;;1.27;;
51236;SDS011;37312;47.550;18.818;2022-09-01T11:53:19;1.37;;;0.98;;
51236;SDS011;37312;47.550;18.818;2022-09-01T11:55:48;1.33;;;1.20;;
51236;SDS011;37312;47.550;18.818;2022-09-01T12:01:12;2.12;;;1.80;;
51236;SDS011;37312;47.550;18.818;2022-09-01T12:03:47;0.93;;;0.90;;
51236;SDS011;37312;47.550;18.818;2022-09-01T12:06:18;1.55;;;1.23;;
51236;SDS011;37312;47.550;18.818;2022-09-01T12:08:51;3.20;;;1.45;;
51236;SDS011;37312;47.550;18.818;2022-09-01T12:11:27;2.53;;;1.27;;
51236;SDS011;37312;47.550;18.818;2022-09-01T12:14:05;6.20;;;1.02;;
51236;SDS011;37312;47.550;18.818;2022-09-01T12:16:35;3.47;;;1.40;;
51236;SDS011;37312;47.550;18.818;2022-09-01T12:19:04;1.67;;;1.27;;
51236;SDS011;37312;47.550;18.818;2022-09-01T12:21:34;1.73;;;0.85;;
51236;SDS011;37312;47.550;18.818;2022-09-01T12:24:12;1.30;;;1.20;;
51236;SDS011;37312;47.550;18.818;2022-09-01T12:26:43;1.42;;;1.33;;
51236;SDS011;37312;47.550;18.818;2022-09-01T12:29:11;1.65;;;1.55;;
51236;SDS011;37312;47.550;18.818;2022-09-01T12:31:44;3.25;;;1.50;;
51236;SDS011;37312;47.550;18.818;2022-09-01T12:39:44;1.10;;;1.00;;
51236;SDS011;37312;47.550;18.818;2022-09-01T12:50:31;1.73;;;1.10;;
51236;SDS011;37312;47.550;18.818;2022-09-01T12:55:26;1.50;;;1.37;;
51236;SDS011;37312;47.550;18.818;2022-09-01T12:58:01;1.12;;;1.02;;
51236;SDS011;37312;47.550;18.818;2022-09-01T13:00:33;1.83;;;1.55;;
51236;SDS011;37312;47.550;18.818;2022-09-01T13:05:34;4.43;;;1.52;;
51236;SDS011;37312;47.550;18.818;2022-09-01T13:08:02;2.72;;;1.23;;
51236;SDS011;37312;47.550;18.818;2022-09-01T13:10:31;3.42;;;1.12;;
51236;SDS011;37312;47.550;18.818;2022-09-01T13:13:03;2.37;;;0.80;;
51236;SDS011;37312;47.550;18.818;2022-09-01T13:15:30;1.83;;;1.17;;
51236;SDS011;37312;47.550;18.818;2022-09-01T13:17:56;1.50;;;1.12;;
51236;SDS011;37312;47.550;18.818;2022-09-01T13:20:22;2.05;;;1.48;;
51236;SDS011;37312;47.550;18.818;2022-09-01T13:22:48;1.83;;;1.40;;
51236;SDS011;37312;47.550;18.818;2022-09-01T13:25:16;5.50;;;1.80;;
51236;SDS011;37312;47.550;18.818;2022-09-01T13:27:45;1.42;;;1.00;;
51236;SDS011;37312;47.550;18.818;2022-09-01T13:30:16;3.33;;;1.27;;
51236;SDS011;37312;47.550;18.818;2022-09-01T13:32:45;1.15;;;1.08;;
51236;SDS011;37312;47.550;18.818;2022-09-01T13:35:14;3.90;;;1.75;;
51236;SDS011;37312;47.550;18.818;2022-09-01T13:37:41;1.12;;;1.02;;
51236;SDS011;37312;47.550;18.818;2022-09-01T13:40:07;1.75;;;1.10;;
51236;SDS011;37312;47.550;18.818;2022-09-01T13:42:43;5.65;;;1.02;;
51236;SDS011;37312;47.550;18.818;2022-09-01T13:45:17;1.10;;;1.00;;
51236;SDS011;37312;47.550;18.818;2022-09-01T13:47:45;1.98;;;0.90;;
51236;SDS011;37312;47.550;18.818;2022-09-01T13:50:13;1.45;;;1.35;;
51236;SDS011;37312;47.550;18.818;2022-09-01T13:52:45;1.87;;;1.35;;
51236;SDS011;37312;47.550;18.818;2022-09-01T13:55:14;1.58;;;1.48;;
51236;SDS011;37312;47.550;18.818;2022-09-01T13:57:43;1.23;;;1.12;;
51236;SDS011;37312;47.550;18.818;2022-09-01T14:00:16;1.20;;;1.05;;
51236;SDS011;37312;47.550;18.818;2022-09-01T14:02:50;2.00;;;0.93;;
51236;SDS011;37312;47.550;18.818;2022-09-01T14:05:21;3.85;;;1.35;;
51236;SDS011;37312;47.550;18.818;2022-09-01T14:07:50;1.58;;;1.48;;
51236;SDS011;37312;47.550;18.818;2022-09-01T14:10:17;1.10;;;1.00;;
51236;SDS011;37312;47.550;18.818;2022-09-01T14:12:44;2.87;;;1.05;;
51236;SDS011;37312;47.550;18.818;2022-09-01T14:15:12;0.98;;;0.98;;
51236;SDS011;37312;47.550;18.818;2022-09-01T14:17:39;1.33;;;1.00;;
51236;SDS011;37312;47.550;18.818;2022-09-01T14:20:06;2.45;;;2.12;;
51236;SDS011;37312;47.550;18.818;2022-09-01T14:22:40;2.20;;;2.00;;
51236;SDS011;37312;47.550;18.818;2022-09-01T14:25:07;3.37;;;3.08;;
51236;SDS011;37312;47.550;18.818;2022-09-01T14:27:35;3.08;;;2.80;;
51236;SDS011;37312;47.550;18.818;2022-09-01T14:30:01;3.20;;;2.80;;
51236;SDS011;37312;47.550;18.818;2022-09-01T14:32:28;4.65;;;2.47;;
51236;SDS011;37312;47.550;18.818;2022-09-01T14:34:55;2.55;;;2.35;;
51236;SDS011;37312;47.550;18.818;2022-09-01T14:37:21;3.00;;;2.80;;
51236;SDS011;37312;47.550;18.818;2022-09-01T14:39:48;2.45;;;2.22;;
51236;SDS011;37312;47.550;18.818;2022-09-01T14:42:18;3.03;;;2.50;;
51236;SDS011;37312;47.550;18.818;2022-09-01T14:44:45;2.25;;;2.05;;
51236;SDS011;37312;47.550;18.818;2022-09-01T14:47:13;2.45;;;2.12;;
51236;SDS011;37312;47.550;18.818;2022-09-01T14:49:39;3.47;;;2.67;;
51236;SDS011;37312;47.550;18.818;2022-09-01T14:52:06;3.03;;;2.83;;
51236;SDS011;37312;47.550;18.818;2022-09-01T14:54:33;4.70;;;2.28;;
51236;SDS011;37312;47.550;18.818;2022-09-01T14:57:00;2.83;;;2.53;;
51236;SDS011;37312;47.550;18.818;2022-09-01T14:59:26;2.92;;;2.17;;
51236;SDS011;37312;47.550;18.818;2022-09-01T15:01:52;2.85;;;2.42;;
51236;SDS011;37312;47.550;18.818;2022-09-01T15:04:19;3.95;;;2.78;;
51236;SDS011;37312;47.550;18.818;2022-09-01T15:06:44;3.75;;;2.33;;
51236;SDS011;37312;47.550;18.818;2022-09-01T15:09:10;4.50;;;2.28;;
51236;SDS011;37312;47.550;18.818;2022-09-01T15:11:36;3.53;;;3.15;;
51236;SDS011;37312;47.550;18.818;2022-09-01T15:14:03;3.08;;;2.47;;
51236;SDS011;37312;47.550;18.818;2022-09-01T15:16:29;3.08;;;2.15;;
51236;SDS011;37312;47.550;18.818;2022-09-01T15:18:55;5.62;;;2.67;;
51236;SDS011;37312;47.550;18.818;2022-09-01T15:21:22;2.42;;;2.25;;
51236;SDS011;37312;47.550;18.818;2022-09-01T15:23:58;3.58;;;2.83;;
51236;SDS011;37312;47.550;18.818;2022-09-01T15:26:25;2.08;;;1.90;;
51236;SDS011;37312;47.550;18.818;2022-09-01T15:28:52;3.45;;;2.60;;
51236;SDS011;37312;47.550;18.818;2022-09-01T15:31:19;5.18;;;2.67;;
51236;SDS011;37312;47.550;18.818;2022-09-01T15:33:48;3.12;;;2.87;;
51236;SDS011;37312;47.550;18.818;2022-09-01T15:36:18;4.70;;;2.08;;
51236;SDS011;37312;47.550;18.818;2022-09-01T15:38:45;5.75;;;2.80;;
51236;SDS011;37312;47.550;18.818;2022-09-01T15:41:16;4.87;;;2.78;;
51236;SDS011;37312;47.550;18.818;2022-09-01T15:43:42;2.78;;;2.30;;
51236;SDS011;37312;47.550;18.818;2022-09-01T15:46:08;4.53;;;2.33;;
51236;SDS011;37312;47.550;18.818;2022-09-01T15:48:36;4.22;;;2.28;;
51236;SDS011;37312;47.550;18.818;2022-09-01T15:51:25;7.82;;;2.53;;
51236;SDS011;37312;47.550;18.818;2022-09-01T15:53:53;2.55;;;2.35;;
51236;SDS011;37312;47.550;18.818;2022-09-01T15:56:21;2.33;;;2.12;;
51236;SDS011;37312;47.550;18.818;2022-09-01T15:58:48;2.65;;;2.45;;
51236;SDS011;37312;47.550;18.818;2022-09-01T16:01:16;2.30;;;2.10;;
51236;SDS011;37312;47.550;18.818;2022-09-01T16:03:43;3.03;;;2.75;;
51236;SDS011;37312;47.550;18.818;2022-09-01T16:06:10;2.95;;;2.40;;
51236;SDS011;37312;47.550;18.818;2022-09-01T16:08:39;2.28;;;2.10;;
51236;SDS011;37312;47.550;18.818;2022-09-01T16:11:06;2.92;;;2.60;;
51236;SDS011;37312;47.550;18.818;2022-09-01T16:13:38;2.87;;;2.65;;
51236;SDS011;37312;47.550;18.818;2022-09-01T16:16:07;3.92;;;2.92;;
51236;SDS011;37312;47.550;18.818;2022-09-01T16:24:24;2.75;;;2.55;;
51236;SDS011;37312;47.550;18.818;2022-09-01T16:26:50;2.72;;;2.53;;
51236;SDS011;37312;47.550;18.818;2022-09-01T16:29:33;5.25;;;2.87;;
51236;SDS011;37312;47.550;18.818;2022-09-01T16:32:06;3.00;;;2.72;;
51236;SDS011;37312;47.550;18.818;2022-09-01T16:34:32;4.32;;;3.30;;
51236;SDS011;37312;47.550;18.818;2022-09-01T16:39:57;4.40;;;3.05;;
51236;SDS011;37312;47.550;18.818;2022-09-01T16:42:52;3.10;;;2.80;;
51236;SDS011;37312;47.550;18.818;2022-09-01T16:51:54;3.78;;;3.33;;
51236;SDS011;37312;47.550;18.818;2022-09-01T16:54:28;3.65;;;2.92;;
51236;SDS011;37312;47.550;18.818;2022-09-01T16:57:22;3.75;;;3.45;;
51236;SDS011;37312;47.550;18.818;2022-09-01T16:59:57;2.78;;;2.58;;
51236;SDS011;37312;47.550;18.818;2022-09-01T17:11:04;3.47;;;3.20;;